Portada
METAR-TAF:

METAR-TAF

Aeroports :

Ipoh, Malàisia

latitud: 04-34-09N, longitud: 101-05-35E, altitud: 40 m

Observació

L'informe es va fer fa 36 minuts, a les 14:00 UTC
Vent 2 kt amb direcció variable
Temperatura 27°C
Humitat 94%
Pressió 1008 hPa
Visibilitat: 8000 m
Escasses núvols a una alçada de 2600 ft

METAR: WMKI 141400Z VRB02KT 8000 FEW026 27/26 Q1008

Hora: 22:36 (14:36 UTC)

Pronòstic

L'informe es va fer fa 3 hores i 36 minuts, a les 11:00 UTC
Pronòstic vàlid del 14 a les 12 UTC al 15 a les 12 UTC
Vent 5 kt del Nord-Est
Visibilitat: 9000 m
Núvols disperses a una alçada de 2000 ft
Temporalment
l' 15 a les 07 UTC al 15 a les 12 UTC
Visibilitat: 4000 m
Escasses núvols a una alçada de 1700 ft, Cumulonimbus.
tempesta, pluja

TAF: WMKI 141100Z 1412/1512 04005KT 9000 SCT020 TEMPO 1507/1512 4000 TSRA FEW017CB

Observacions i pronòstics meteorològics de més de 4000 aeroports (METAR i TAF).

Les estacions disponibles són els punts grocs i vermells al mapa.

Posi el ratolí al punt desitjat per veure el nom de l'estació.

Feu clic per veure les observacions i els pronòstics meteorològics.

Per canviar el mapa: feu clic els botons verds amb una creu de color negre per apropar; al botó verd amb un guió per allunyar la imatge; o en les fletxes verdes per a mapes adjacents.


METAR-TAF: